KPTK Airport (Oakland County Intl) Information

FAA: PTK - ICAO: KPTK

KPTK Airport Location

State Michigan
County Oakland
City Pontiac
KPTK Airport is 5 miles west of Pontiac, MI.
Latitude 42-39-56.2903N
Longitude 083-25-13.8203W
Elevation 980ft

KPTK Airport METARs

METAR KPTK 240953Z 23008KT 10SM SCT044 SCT065 09/08 A2988 RMK AO2 SLP122 T00890078
Altimeter 29.88"
Temperature 8.9°C (48.0°F)
Wind 230° at 8KT
Clouds scattered at 4,400ft scattered at 6,500ft
Visibility 10.0mi
Time observed: 2021-09-24T09:53:00Z

KPTK Airport Details

Status Operational
Activation April 1940
Ownership Public
Usage Public
Chart DETROIT
ATC on-site Yes
Beacon schedule sunset-sunrise
Beacon color clear green

KPTK Airport Contacts

Owner COUNTY OF OAKLAND
Owner address 1200 N TELEGRAPH, PONTIAC, MI 48341
Owner phone 248-666-3900
Manager PHILIP HANDLEMAN
Manager address 4173 NOBLE ROAD, OXFORD, MI 48371
Manager phone 248-572-7343

KPTK Airport (Oakland County Intl) Radio Frequencies

KPTK (Airport) Radio Frequencies

UNICOM 122.95
Common traffic advisory frequency (CTAF) 120.5